Pagina principale
METAR-TAF:

METAR-TAF

Aeroporti :

RAF Mount Pleasant

Port Stanley, Isole Falkland

latitudine: 51-49S, longitudine: 058-27W, altezza: 74 m

Osservazione

Il bollettino è stato emesso 32 minuti fa, alle 01:50 UTC
Vento 7 kt da ovest/nord-ovest
Temperature 6°C
Umidità 81%
Pressione 999 hPa
Visibilità 10 km o più
nessuna nube inferiore a 1500 m e nessun cumulonembo

METAR: EGYP 160150Z 30007KT CAVOK 06/03 Q0999 BLU

Ora: 23:22 (02:22 UTC)

Previsione

Il bollettino è stato emesso 1 ora e 1 minuti fa, alle 01:21 UTC
Previsione valida dal 16 alle 01 UTC al 16 alle 18 UTC
Vento 12 kt da nord-ovest
Visibilità 10 km o più
Poco nuvoloso ad un'altezza di 1200 ft
Evoluzione graduale
dal 16 alle 09 UTC al 16 alle 12 UTC
Vento 18 kt da nord/nord-ovest con raffiche fino a 32 kt

TAF: EGYP 160121Z 1601/1618 32012KT 9999 FEW012 BECMG 1609/1612 33018G32KT

Osservazioni e previsioni meteorologiche di più di 4000 aeroporti (messaggi METAR e TAF).

Le stazioni disponibili sono rappresentate dai dischi gialli e rossi sulla carta.

Puntare il mouse per vedere il nome della stazione.

Clicca sopra per visualizzare le osservazioni e previsioni meteorologiche.

Per cambiare la mappa : fare clic sui pulsanti verdi con una croce nera per ingrandire, il pulsante verde con un trattino per diminuire, o sulla freccia verde per le mappe adiacenti.


METAR-TAF: